createdAt,value
2022-09-12T00:02:19.045Z,86.42
2022-09-12T00:05:21.580Z,86.43
2022-09-12T00:08:23.649Z,86.56
2022-09-12T00:11:27.041Z,87.71
2022-09-12T00:14:28.949Z,88.24
2022-09-12T00:17:30.872Z,88.33
2022-09-12T00:20:33.052Z,89.14
2022-09-12T00:23:35.153Z,89.58
2022-09-12T00:26:37.700Z,89.67
2022-09-12T00:29:39.604Z,89.54
2022-09-12T00:32:41.559Z,89.77
2022-09-12T00:35:53.054Z,90.58
2022-09-12T00:38:55.072Z,90.64
2022-09-12T00:41:57.022Z,90.59
2022-09-12T00:44:58.938Z,91.20
2022-09-12T00:48:04.816Z,90.92
2022-09-12T00:51:07.067Z,90.63
2022-09-12T00:54:15.404Z,91.10
2022-09-12T00:57:19.557Z,91.54
2022-09-12T01:00:25.054Z,91.54
2022-09-12T01:03:27.105Z,91.70
2022-09-12T01:06:35.484Z,91.71
2022-09-12T01:09:39.042Z,91.97
2022-09-12T01:12:42.763Z,92.25
2022-09-12T01:15:44.502Z,92.42
2022-09-12T01:18:59.747Z,92.41
2022-09-12T01:22:44.735Z,93.47
2022-09-12T01:26:15.693Z,93.73
2022-09-12T01:29:51.902Z,94.50
2022-09-12T01:33:09.117Z,94.64
2022-09-12T01:36:25.915Z,94.18
2022-09-12T01:40:06.304Z,94.15
2022-09-12T01:43:35.852Z,94.00
2022-09-12T01:46:43.310Z,94.40
2022-09-12T01:49:56.136Z,94.53
2022-09-12T01:53:09.989Z,94.42
2022-09-12T01:56:28.864Z,94.17
2022-09-12T01:59:39.703Z,94.84
2022-09-12T02:03:02.368Z,94.87
2022-09-12T02:06:13.160Z,94.71
2022-09-12T02:09:41.896Z,94.98
2022-09-12T02:12:52.646Z,95.10
2022-09-12T02:16:03.210Z,95.31
2022-09-12T02:19:21.450Z,95.37
2022-09-12T02:22:26.712Z,95.13
2022-09-12T02:25:30.549Z,95.54
2022-09-12T02:28:36.198Z,95.95
2022-09-12T02:31:45.084Z,96.27
2022-09-12T02:34:55.234Z,96.26
2022-09-12T02:38:09.197Z,96.98
2022-09-12T02:41:14.223Z,97.65
2022-09-12T02:44:16.121Z,98.08
2022-09-12T02:47:25.973Z,97.97
2022-09-12T02:50:28.165Z,97.62
2022-09-12T02:53:29.951Z,97.47
2022-09-12T02:56:31.666Z,97.46
2022-09-12T02:59:33.553Z,97.31
2022-09-12T03:02:57.170Z,97.24
2022-09-12T03:06:02.162Z,97.22
2022-09-12T03:09:29.965Z,97.40
2022-09-12T03:13:00.932Z,97.20
2022-09-12T03:16:44.614Z,97.23
2022-09-12T03:19:55.606Z,98.02
2022-09-12T03:23:03.250Z,98.21
2022-09-12T03:26:16.417Z,97.89
2022-09-12T03:29:20.035Z,98.08
2022-09-12T03:32:40.828Z,97.84
2022-09-12T03:35:43.839Z,97.89
2022-09-12T03:38:45.711Z,98.25
2022-09-12T03:41:47.472Z,98.41
2022-09-12T03:44:49.043Z,98.28
2022-09-12T03:47:50.688Z,98.45
2022-09-12T03:50:52.379Z,98.27
2022-09-12T03:53:54.531Z,98.37
2022-09-12T03:56:56.292Z,98.43
2022-09-12T03:59:57.946Z,98.89
2022-09-12T04:02:59.674Z,98.91
2022-09-12T04:06:01.386Z,98.60
2022-09-12T04:09:03.882Z,99.12
2022-09-12T04:12:06.085Z,99.13
2022-09-12T04:15:08.509Z,99.17
2022-09-12T04:18:10.542Z,99.16
2022-09-12T04:21:16.647Z,98.92
2022-09-12T04:24:18.384Z,98.98
2022-09-12T04:27:20.108Z,99.20
2022-09-12T04:30:21.801Z,99.59
2022-09-12T04:33:23.714Z,100.00
2022-09-12T04:36:26.693Z,100.00
2022-09-12T04:39:28.374Z,100.00
2022-09-12T04:42:30.140Z,100.00
2022-09-12T04:45:31.850Z,100.00
2022-09-12T04:48:33.758Z,100.00
2022-09-12T04:51:37.145Z,100.00
2022-09-12T04:54:38.825Z,100.00
2022-09-12T04:57:40.800Z,100.00
2022-09-12T05:00:42.447Z,100.00
2022-09-12T05:03:44.793Z,100.00
2022-09-12T05:06:47.625Z,100.00
2022-09-12T05:09:49.399Z,100.00
2022-09-12T05:12:51.246Z,100.00
2022-09-12T05:15:57.389Z,100.00
2022-09-12T05:18:59.348Z,100.00
2022-09-12T05:22:01.061Z,100.00
2022-09-12T05:25:02.759Z,100.00
2022-09-12T05:28:04.465Z,100.00
2022-09-12T05:31:07.930Z,100.00
2022-09-12T05:34:10.444Z,100.00
2022-09-12T05:37:12.688Z,100.00
2022-09-12T05:40:17.847Z,100.00
2022-09-12T05:43:20.534Z,100.00
2022-09-12T05:46:25.751Z,100.00
2022-09-12T05:49:27.536Z,100.00
2022-09-12T05:52:29.405Z,100.00
2022-09-12T05:55:31.559Z,100.00
2022-09-12T05:58:35.096Z,100.00
2022-09-12T06:01:36.879Z,100.00
2022-09-12T06:04:40.996Z,100.00
2022-09-12T06:07:42.681Z,100.00
2022-09-12T06:10:44.323Z,100.00
2022-09-12T06:13:46.144Z,100.00
2022-09-12T06:16:48.777Z,100.00
2022-09-12T06:19:51.098Z,100.00
2022-09-12T06:22:56.046Z,100.00
2022-09-12T06:25:57.779Z,100.00
2022-09-12T06:29:01.149Z,99.88
2022-09-12T06:32:02.987Z,99.62
2022-09-12T06:35:05.636Z,99.76
2022-09-12T06:38:07.736Z,99.65
2022-09-12T06:41:12.327Z,99.39
2022-09-12T06:44:16.640Z,99.40
2022-09-12T06:47:18.291Z,98.56
2022-09-12T06:50:19.904Z,98.42
2022-09-12T06:53:21.681Z,98.08
2022-09-12T06:56:25.567Z,97.38
2022-09-12T06:59:27.239Z,95.42
2022-09-12T07:02:29.000Z,94.44
2022-09-12T07:05:30.610Z,93.33
2022-09-12T07:08:34.238Z,94.16
2022-09-12T07:11:38.149Z,92.80
2022-09-12T07:14:39.849Z,91.82
2022-09-12T07:17:42.090Z,90.71
2022-09-12T07:20:44.034Z,88.96
2022-09-12T07:23:46.221Z,89.55
2022-09-12T07:26:47.920Z,87.64
2022-09-12T07:29:50.085Z,86.73
2022-09-12T07:32:55.224Z,83.79
2022-09-12T07:36:03.769Z,82.95
2022-09-12T07:39:06.029Z,81.69
2022-09-12T07:42:07.912Z,79.16
2022-09-12T07:45:10.310Z,77.82
2022-09-12T07:48:12.004Z,77.77
2022-09-12T07:51:13.662Z,77.15
2022-09-12T07:54:15.863Z,77.61
2022-09-12T07:57:17.536Z,77.98
2022-09-12T08:00:19.609Z,76.90
2022-09-12T08:03:21.256Z,76.62
2022-09-12T08:06:24.305Z,76.30
2022-09-12T08:09:26.014Z,76.57
2022-09-12T08:12:28.206Z,73.50
2022-09-12T08:15:31.260Z,74.00
2022-09-12T08:18:33.393Z,74.66
2022-09-12T08:21:35.276Z,73.48
2022-09-12T08:24:39.267Z,73.64
2022-09-12T08:27:43.077Z,72.04
2022-09-12T08:30:44.816Z,71.91
2022-09-12T08:33:46.867Z,71.93
2022-09-12T08:36:48.537Z,69.00
2022-09-12T08:39:50.158Z,69.01
2022-09-12T08:43:05.826Z,68.66
2022-09-12T08:46:27.670Z,67.70
2022-09-12T08:49:44.549Z,67.66
2022-09-12T08:53:04.488Z,67.47
2022-09-12T08:56:09.242Z,65.23
2022-09-12T08:59:10.973Z,66.14
2022-09-12T09:02:28.811Z,66.51
2022-09-12T09:05:51.540Z,66.41
2022-09-12T09:09:18.419Z,65.61
2022-09-12T09:12:39.160Z,66.02
2022-09-12T09:15:59.729Z,65.32
2022-09-12T09:19:06.615Z,65.63
2022-09-12T09:22:16.877Z,63.36
2022-09-12T09:25:25.668Z,63.70
2022-09-12T09:28:52.895Z,64.52
2022-09-12T09:31:58.597Z,65.52
2022-09-12T09:35:36.511Z,66.75
2022-09-12T09:39:00.318Z,66.61
2022-09-12T09:42:30.456Z,65.84
2022-09-12T09:45:32.451Z,61.84
2022-09-12T09:48:37.137Z,61.44
2022-09-12T09:51:41.701Z,62.59
2022-09-12T09:54:50.203Z,62.86
2022-09-12T09:57:53.379Z,62.80
2022-09-12T10:01:00.105Z,61.35
2022-09-12T10:04:01.867Z,61.07
2022-09-12T10:07:04.542Z,60.88
2022-09-12T10:10:22.838Z,62.55
2022-09-12T10:13:53.369Z,61.56
2022-09-12T10:16:55.291Z,60.10
2022-09-12T10:20:17.543Z,60.27
2022-09-12T10:23:19.669Z,59.15
2022-09-12T10:26:24.442Z,60.13
2022-09-12T10:29:30.336Z,60.14
2022-09-12T10:32:38.159Z,58.52
2022-09-12T10:35:48.052Z,57.33
2022-09-12T10:38:52.899Z,57.79
2022-09-12T10:41:55.568Z,56.09
2022-09-12T10:44:57.200Z,56.15
2022-09-12T10:48:22.003Z,57.38
2022-09-12T10:51:23.630Z,56.29
2022-09-12T10:54:28.017Z,57.08
2022-09-12T10:57:54.965Z,55.98
2022-09-12T11:01:23.454Z,55.99
2022-09-12T11:04:50.128Z,55.40
2022-09-12T11:08:03.557Z,53.78
2022-09-12T11:11:39.277Z,53.19
2022-09-12T11:14:50.066Z,53.54
2022-09-12T11:18:03.690Z,50.96
2022-09-12T11:21:31.774Z,51.49
2022-09-12T11:24:59.076Z,48.87
2022-09-12T11:28:28.725Z,48.94
2022-09-12T11:31:55.418Z,48.47
2022-09-12T11:35:24.689Z,46.68
2022-09-12T11:38:34.147Z,47.11
2022-09-12T11:41:39.770Z,47.58
2022-09-12T11:44:47.547Z,48.09
2022-09-12T11:47:55.883Z,47.18
2022-09-12T11:50:59.859Z,48.77
2022-09-12T11:54:23.316Z,45.84
2022-09-12T11:57:47.409Z,44.86
2022-09-12T12:00:56.362Z,46.18
2022-09-12T12:04:03.869Z,46.41
2022-09-12T12:07:10.699Z,43.25
2022-09-12T12:10:43.320Z,46.85
2022-09-12T12:13:57.234Z,44.62
2022-09-12T12:16:59.289Z,44.61
2022-09-12T12:20:07.675Z,41.52
2022-09-12T12:23:29.566Z,41.80
2022-09-12T12:26:43.565Z,41.54
2022-09-12T12:29:45.469Z,40.52
2022-09-12T12:32:47.368Z,42.74
2022-09-12T12:36:01.612Z,40.49
2022-09-12T12:39:34.084Z,39.98
2022-09-12T12:42:35.677Z,41.58
2022-09-12T12:45:37.286Z,38.71
2022-09-12T12:49:18.750Z,40.11
2022-09-12T12:52:29.185Z,38.13
2022-09-12T12:55:45.627Z,40.90
2022-09-12T12:58:47.430Z,39.34
2022-09-12T13:01:55.159Z,38.75
2022-09-12T13:04:59.872Z,38.92
2022-09-12T13:08:12.029Z,38.38
2022-09-12T13:11:28.658Z,37.00
2022-09-12T13:14:59.367Z,37.40
2022-09-12T13:18:04.312Z,38.73
2022-09-12T13:21:14.525Z,36.98
2022-09-12T13:24:17.185Z,36.80
2022-09-12T13:27:26.415Z,36.61
2022-09-12T13:30:31.510Z,36.21
2022-09-12T13:33:39.466Z,35.51
2022-09-12T13:36:53.089Z,37.96
2022-09-12T13:40:32.518Z,36.40
2022-09-12T13:43:43.566Z,38.02
2022-09-12T13:46:45.922Z,37.16
2022-09-12T13:49:48.475Z,36.50
2022-09-12T13:52:55.039Z,36.76
2022-09-12T13:55:59.206Z,33.73
2022-09-12T13:59:02.617Z,35.59
2022-09-12T14:02:20.729Z,35.08
2022-09-12T14:05:26.274Z,36.14
2022-09-12T14:08:27.940Z,35.15
2022-09-12T14:11:33.871Z,33.69
2022-09-12T14:14:43.971Z,33.77
2022-09-12T14:17:54.849Z,33.03
2022-09-12T14:21:02.021Z,33.32
2022-09-12T14:24:06.272Z,35.16
2022-09-12T14:27:07.955Z,33.00
2022-09-12T14:30:22.943Z,32.84
2022-09-12T14:33:24.635Z,32.52
2022-09-12T14:36:33.959Z,32.08
2022-09-12T14:39:44.095Z,34.08
2022-09-12T14:42:46.921Z,33.37
2022-09-12T14:46:01.342Z,31.25
2022-09-12T14:49:14.193Z,32.95
2022-09-12T14:52:29.708Z,33.97
2022-09-12T14:55:32.200Z,31.50
2022-09-12T14:58:34.284Z,31.71
2022-09-12T15:01:36.082Z,31.70
2022-09-12T15:04:42.707Z,30.39
2022-09-12T15:07:48.377Z,31.05
2022-09-12T15:10:50.697Z,30.24
2022-09-12T15:13:52.753Z,30.96
2022-09-12T15:16:54.477Z,31.98
2022-09-12T15:19:56.045Z,30.62
2022-09-12T15:22:57.981Z,31.29
2022-09-12T15:26:00.018Z,30.81
2022-09-12T15:29:01.625Z,32.94
2022-09-12T15:32:04.201Z,33.51
2022-09-12T15:35:25.616Z,33.43
2022-09-12T15:38:27.395Z,35.03
2022-09-12T15:41:38.629Z,33.19
2022-09-12T15:44:41.157Z,33.59
2022-09-12T15:47:43.030Z,33.52
2022-09-12T15:50:44.839Z,34.32
2022-09-12T15:53:48.466Z,33.77
2022-09-12T15:56:50.317Z,34.90
2022-09-12T15:59:52.698Z,34.38
2022-09-12T16:02:54.659Z,35.61
2022-09-12T16:06:02.631Z,34.53
2022-09-12T16:09:04.447Z,36.53
2022-09-12T16:12:06.547Z,37.36
2022-09-12T16:15:12.415Z,39.54
2022-09-12T16:18:14.201Z,39.96
2022-09-12T16:21:16.212Z,42.62
2022-09-12T16:24:17.857Z,43.28
2022-09-12T16:27:19.711Z,43.98
2022-09-12T16:30:21.441Z,45.30
2022-09-12T16:33:23.184Z,45.42
2022-09-12T16:36:24.829Z,46.52
2022-09-12T16:39:26.441Z,46.29
2022-09-12T16:42:30.513Z,45.97
2022-09-12T16:45:32.714Z,45.52
2022-09-12T16:48:34.725Z,46.06
2022-09-12T16:51:36.844Z,46.57
2022-09-12T16:54:48.174Z,46.81
2022-09-12T16:57:49.982Z,47.13
2022-09-12T17:01:03.525Z,47.22
2022-09-12T17:04:05.537Z,47.46
2022-09-12T17:07:08.016Z,48.24
2022-09-12T17:10:10.059Z,49.07
2022-09-12T17:13:11.936Z,49.88
2022-09-12T17:16:14.101Z,49.81
2022-09-12T17:19:22.115Z,49.82
2022-09-12T17:22:23.841Z,50.61
2022-09-12T17:25:27.850Z,50.26
2022-09-12T17:28:29.723Z,50.60
2022-09-12T17:31:31.869Z,50.76
2022-09-12T17:34:33.511Z,50.52
2022-09-12T17:37:35.912Z,51.35
2022-09-12T17:40:58.593Z,50.39
2022-09-12T17:44:01.498Z,51.60
2022-09-12T17:47:05.165Z,51.65
2022-09-12T17:50:30.469Z,51.85
2022-09-12T17:53:29.189Z,52.12
2022-09-12T17:56:32.305Z,51.95
2022-09-12T17:59:34.011Z,52.72
2022-09-12T18:02:36.072Z,52.54
2022-09-12T18:05:45.512Z,52.96
2022-09-12T18:08:47.590Z,52.78
2022-09-12T18:11:50.269Z,52.68
2022-09-12T18:14:51.868Z,52.67
2022-09-12T18:17:53.897Z,53.05
2022-09-12T18:20:55.583Z,52.79
2022-09-12T18:23:59.299Z,52.72
2022-09-12T18:27:02.045Z,52.92
2022-09-12T18:30:20.541Z,53.19
2022-09-12T18:33:24.306Z,53.41
2022-09-12T18:36:26.620Z,53.38
2022-09-12T18:39:28.395Z,52.92
2022-09-12T18:42:30.056Z,52.62
2022-09-12T18:45:31.759Z,52.91
2022-09-12T18:48:33.976Z,52.67
2022-09-12T18:51:37.008Z,52.37
2022-09-12T18:54:38.628Z,52.34
2022-09-12T18:57:42.148Z,52.54
2022-09-12T19:00:48.065Z,52.58
2022-09-12T19:03:49.740Z,52.21
2022-09-12T19:06:51.423Z,52.38
2022-09-12T19:09:53.136Z,52.72
2022-09-12T19:12:55.728Z,53.13
2022-09-12T19:15:57.686Z,52.37
2022-09-12T19:18:59.845Z,52.04
2022-09-12T19:22:01.551Z,51.93
2022-09-12T19:25:03.360Z,51.92
2022-09-12T19:28:05.376Z,51.89
2022-09-12T19:31:08.913Z,52.06
2022-09-12T19:34:12.197Z,53.43
2022-09-12T19:37:13.832Z,53.45
2022-09-12T19:40:15.584Z,53.79
2022-09-12T19:43:17.276Z,53.64
2022-09-12T19:46:21.698Z,55.23
2022-09-12T19:49:23.312Z,55.93
2022-09-12T19:52:25.133Z,56.49
2022-09-12T19:55:26.760Z,55.85
2022-09-12T19:58:29.605Z,56.48
2022-09-12T20:01:31.577Z,56.88
2022-09-12T20:04:33.663Z,57.08
2022-09-12T20:07:35.384Z,56.97
2022-09-12T20:10:37.401Z,57.17
2022-09-12T20:13:39.040Z,57.57
2022-09-12T20:16:40.903Z,57.61
2022-09-12T20:19:42.498Z,57.86
2022-09-12T20:22:44.123Z,58.50
2022-09-12T20:25:45.844Z,58.10
2022-09-12T20:28:47.516Z,57.97
2022-09-12T20:31:49.208Z,58.26
2022-09-12T20:34:51.737Z,57.61
2022-09-12T20:37:53.360Z,58.41
2022-09-12T20:40:54.979Z,58.37
2022-09-12T20:43:57.539Z,58.81
2022-09-12T20:46:59.784Z,58.79
2022-09-12T20:50:01.581Z,58.98
2022-09-12T20:53:03.321Z,59.50
2022-09-12T20:56:07.850Z,61.08
2022-09-12T20:59:12.206Z,62.25
2022-09-12T21:02:15.169Z,61.80
2022-09-12T21:05:17.152Z,62.01
2022-09-12T21:08:18.785Z,63.07
2022-09-12T21:11:21.250Z,64.12
2022-09-12T21:14:23.163Z,63.80
2022-09-12T21:17:25.214Z,63.10
2022-09-12T21:20:26.869Z,63.80
2022-09-12T21:23:29.005Z,64.60
2022-09-12T21:26:31.372Z,64.95
2022-09-12T21:29:33.111Z,65.17
2022-09-12T21:32:36.009Z,64.73
2022-09-12T21:35:37.914Z,65.10
2022-09-12T21:38:39.746Z,65.10
2022-09-12T21:41:41.380Z,64.66
2022-09-12T21:44:43.104Z,62.57
2022-09-12T21:47:45.337Z,63.59
2022-09-12T21:50:50.592Z,63.29
2022-09-12T21:53:52.637Z,62.38
2022-09-12T21:56:54.524Z,61.99
2022-09-12T21:59:56.469Z,60.97
2022-09-12T22:02:59.199Z,59.13
2022-09-12T22:06:03.838Z,60.30
2022-09-12T22:09:07.489Z,61.28
2022-09-12T22:12:09.227Z,60.66
2022-09-12T22:15:36.365Z,59.84
2022-09-12T22:18:34.402Z,59.39
2022-09-12T22:21:56.179Z,59.05
2022-09-12T22:24:57.913Z,60.90
2022-09-12T22:27:59.831Z,58.52
2022-09-12T22:31:01.680Z,57.30
2022-09-12T22:34:04.146Z,57.82
2022-09-12T22:37:06.318Z,60.53
2022-09-12T22:40:08.965Z,60.09
2022-09-12T22:43:11.573Z,61.92
2022-09-12T22:46:13.353Z,63.22
2022-09-12T22:49:15.283Z,63.16
2022-09-12T22:52:17.581Z,63.75
2022-09-12T22:55:19.297Z,64.84
2022-09-12T22:58:21.074Z,65.40
2022-09-12T23:01:23.999Z,66.14
2022-09-12T23:04:25.727Z,65.40
2022-09-12T23:07:27.462Z,63.57
2022-09-12T23:10:29.042Z,64.17
2022-09-12T23:13:31.110Z,65.63
2022-09-12T23:16:33.157Z,65.58
2022-09-12T23:19:34.797Z,65.72
2022-09-12T23:22:37.295Z,63.41
2022-09-12T23:25:38.926Z,62.66
2022-09-12T23:28:42.246Z,61.04
2022-09-12T23:31:44.215Z,62.36
2022-09-12T23:34:46.867Z,62.50
2022-09-12T23:37:48.498Z,63.23
2022-09-12T23:40:50.129Z,61.79
2022-09-12T23:43:51.811Z,65.15
2022-09-12T23:46:53.496Z,64.34
2022-09-12T23:49:55.154Z,65.28
2022-09-12T23:52:56.841Z,66.22
2022-09-12T23:55:59.322Z,67.08
2022-09-12T23:59:00.939Z,67.48
